Sun, 11 Apr 2021 04:58:59 UTC | login

Information for RPM texlive-dvipng-4:svn29821.1.14-18.el7.noarch.rpm

ID40718
Nametexlive-dvipng
Versionsvn29821.1.14
Release18.el7
Epoch4
Archnoarch
SummaryA fast DVI to PNG/GIF converter
DescriptionThis program makes PNG and/or GIF graphics from DVI files as obtained from TeX and its relatives. Its benefits include: - Speed. It offers very fast rendering of DVI as bitmap files, which makes it suitable for generating large amounts of images on-the-fly, as needed in preview-latex, WeBWorK and others; - It does not read the postamble, so it can be started before TeX finishes. There is a --follow switch that makes dvipng wait at end-of-file for further output, unless it finds the POST marker that indicates the end of the DVI; - Interactive query of options. dvipng can read options interactively through stdin, and all options are usable. It is even possible to change the input file through this interface. - Support for PK, VF, PostScript Type1, and TrueType fonts, colour specials, and inclusion of PostScript, PNG, JPEG or GIF images. date: 2012-04-21 10:57:19 +0200
Build Time2016-01-25 02:26:04 GMT
Size49096
4c6a1c79b79d29fea824878c04a54c0e
LicenseLGPLv2+
Buildrootcloud7-openstack-common-el7-build-10510-14508
Provides
tex-dvipng = 2014
texlive-dvipng = 4:svn29821.1.14-18.el7
Obsoletes No Obsoletes
Conflicts No Conflicts
Requires
/bin/sh
/bin/sh
/bin/sh
/bin/sh
/sbin/install-info
coreutils
rpmlib(CompressedFileNames) <= 3.0.4-1
rpmlib(FileDigests) <= 4.6.0-1
rpmlib(PayloadFilesHavePrefix) <= 4.0-1
rpmlib(PayloadIsXz) <= 5.2-1
tex-kpathsea
texlive-base
texlive-dvipng-bin
texlive-kpathsea-bin
Recommends No Recommends
Suggests No Suggests
Supplements No Supplements
Enhances No Enhances
Files
1 through 5 of 5
Name ascending sort Size
/usr/share/doc/texlive-dvipng-svn29821.1.144096
/usr/share/doc/texlive-dvipng-svn29821.1.14/lgpl2.1.txt39
/usr/share/info/dvipng.info.gz17079
/usr/share/man/man1/dvigif.1.gz38
/usr/share/man/man1/dvipng.1.gz8250
Component of
Page:
1 through 50 of 112 >>>
Buildroot descending sort Created State
cloud7-openstack-pike-el7-build-47531-135044 2018-07-05 20:02:01 expired
cloud7-openstack-pike-el7-build-47530-135044 2018-07-05 19:52:43 expired
cloud7-openstack-newton-el7-build-46591-123731 2018-06-05 22:01:42 expired
cloud7-openstack-pike-el7-build-46098-119427 2018-05-24 10:03:24 expired
cloud7-openstack-pike-el7-build-46097-119427 2018-05-24 09:51:07 expired
cloud7-openstack-queens-el7-build-45890-116497 2018-05-16 18:03:07 expired
cloud7-openstack-queens-el7-build-45847-116038 2018-05-15 17:04:54 expired
cloud7-openstack-ocata-el7-build-45287-107567 2018-04-25 15:39:02 expired
cloud7-openstack-ocata-el7-build-45286-107567 2018-04-25 14:54:24 expired
cloud7-openstack-queens-el7-build-45026-105748 2018-04-19 18:02:26 expired
cloud7-openstack-queens-el7-build-44897-104337 2018-04-16 21:54:32 expired
cloud7-openstack-queens-el7-build-44410-99303 2018-04-02 17:29:22 expired
cloud7-openstack-queens-el7-build-44133-97447 2018-03-27 14:18:56 expired
cloud7-openstack-newton-el7-build-43632-93148 2018-03-16 20:13:27 expired
cloud7-openstack-newton-el7-build-43630-93148 2018-03-16 18:59:28 expired
cloud7-openstack-ocata-el7-build-43586-93114 2018-03-15 15:19:29 expired
cloud7-openstack-ocata-el7-build-43580-93114 2018-03-15 15:07:31 expired
cloud7-openstack-ocata-el7-build-43551-92400 2018-03-14 19:22:35 expired
cloud7-openstack-ocata-el7-build-43464-92302 2018-03-13 19:29:26 expired
cloud7-openstack-ocata-el7-build-43253-90067 2018-03-08 19:53:04 expired
cloud7-openstack-ocata-el7-build-43081-90029 2018-03-07 21:03:43 expired
cloud7-openstack-queens-el7-build-42211-84748 2018-02-21 17:39:49 expired
cloud7-openstack-queens-el7-build-42208-84748 2018-02-21 16:59:40 expired
cloud7-openstack-queens-el7-build-42182-84731 2018-02-21 11:46:23 expired
cloud7-openstack-queens-el7-build-42180-84730 2018-02-21 11:39:15 expired
cloud7-openstack-queens-el7-build-42153-84720 2018-02-21 09:26:59 expired
cloud7-openstack-queens-el7-build-41937-83952 2018-02-19 23:29:50 expired
cloud7-openstack-queens-el7-build-41924-83948 2018-02-19 22:57:25 expired
cloud7-openstack-queens-el7-build-41739-83222 2018-02-17 11:59:45 expired
cloud7-openstack-ocata-el7-build-36076-50092 2017-10-10 17:57:40 expired
cloud7-openstack-ocata-el7-build-35368-49842 2017-09-27 18:27:29 expired
cloud7-openstack-newton-el7-build-35032-49509 2017-09-19 18:18:03 expired
cloud7-openstack-newton-el7-build-35030-49509 2017-09-19 14:05:54 expired
cloud7-openstack-ocata-el7-build-33839-48297 2017-08-30 12:46:00 expired
cloud7-openstack-ocata-el7-build-33833-48297 2017-08-30 12:32:52 expired
cloud7-openstack-newton-el7-build-33686-48241 2017-08-29 14:56:14 expired
cloud7-openstack-newton-el7-build-33685-48241 2017-08-29 14:30:43 expired
cloud7-openstack-pike-el7-build-33076-47921 2017-08-24 13:10:16 expired
cloud7-openstack-pike-el7-build-33073-47920 2017-08-24 13:02:41 expired
cloud7-openstack-pike-el7-build-33055-47916 2017-08-24 12:19:49 expired
cloud7-openstack-newton-el7-build-31154-45873 2017-08-03 19:16:04 expired
cloud7-openstack-newton-el7-build-31128-45873 2017-08-03 16:34:04 expired
cloud7-openstack-ocata-el7-build-29842-42382 2017-07-25 09:22:42 expired
cloud7-openstack-ocata-el7-build-29816-42365 2017-07-24 19:52:01 expired
cloud7-openstack-common-el7-build-29737-42223 2017-07-20 14:31:50 expired
cloud7-openstack-pike-el7-build-29091-41439 2017-06-29 18:51:37 expired
cloud7-openstack-pike-el7-build-29087-41435 2017-06-28 22:30:46 expired
cloud7-openstack-newton-el7-build-28886-41206 2017-06-19 20:31:52 expired
cloud7-openstack-newton-el7-build-28874-41190 2017-06-19 08:27:01 expired
cloud7-openstack-newton-el7-build-28700-41007 2017-06-14 12:55:11 expired